sensor_id;sensor_type;location;lat;lon;timestamp;P1;durP1;ratioP1;P2;durP2;ratioP2
38715;SDS011;24833;49.324;8.694;2022-09-27T00:01:07;0.93;;;0.80;;
38715;SDS011;24833;49.324;8.694;2022-09-27T00:03:37;1.30;;;1.20;;
38715;SDS011;24833;49.324;8.694;2022-09-27T00:08:36;1.25;;;1.15;;
38715;SDS011;24833;49.324;8.694;2022-09-27T00:11:04;2.67;;;1.13;;
38715;SDS011;24833;49.324;8.694;2022-09-27T00:13:38;0.70;;;0.70;;
38715;SDS011;24833;49.324;8.694;2022-09-27T00:16:06;2.38;;;1.05;;
38715;SDS011;24833;49.324;8.694;2022-09-27T00:18:33;1.55;;;1.05;;
38715;SDS011;24833;49.324;8.694;2022-09-27T00:21:10;1.63;;;1.10;;
38715;SDS011;24833;49.324;8.694;2022-09-27T00:23:39;0.88;;;0.88;;
38715;SDS011;24833;49.324;8.694;2022-09-27T00:26:07;1.95;;;1.02;;
38715;SDS011;24833;49.324;8.694;2022-09-27T00:28:37;1.05;;;0.95;;
38715;SDS011;24833;49.324;8.694;2022-09-27T00:31:09;1.38;;;0.90;;
38715;SDS011;24833;49.324;8.694;2022-09-27T00:33:50;0.88;;;0.88;;
38715;SDS011;24833;49.324;8.694;2022-09-27T00:36:19;1.70;;;1.20;;
38715;SDS011;24833;49.324;8.694;2022-09-27T00:38:47;1.27;;;1.17;;
38715;SDS011;24833;49.324;8.694;2022-09-27T00:41:17;2.10;;;1.10;;
38715;SDS011;24833;49.324;8.694;2022-09-27T00:43:55;1.00;;;1.00;;
38715;SDS011;24833;49.324;8.694;2022-09-27T00:46:33;1.25;;;0.95;;
38715;SDS011;24833;49.324;8.694;2022-09-27T00:49:12;1.55;;;1.08;;
38715;SDS011;24833;49.324;8.694;2022-09-27T00:51:56;5.38;;;1.00;;
38715;SDS011;24833;49.324;8.694;2022-09-27T00:54:28;2.90;;;1.10;;
38715;SDS011;24833;49.324;8.694;2022-09-27T00:56:58;1.50;;;1.20;;
38715;SDS011;24833;49.324;8.694;2022-09-27T01:02:29;2.42;;;1.00;;
38715;SDS011;24833;49.324;8.694;2022-09-27T01:04:56;1.30;;;1.20;;
38715;SDS011;24833;49.324;8.694;2022-09-27T01:07:24;1.10;;;1.00;;
38715;SDS011;24833;49.324;8.694;2022-09-27T01:09:52;3.45;;;1.20;;
38715;SDS011;24833;49.324;8.694;2022-09-27T01:18:07;0.80;;;0.80;;
38715;SDS011;24833;49.324;8.694;2022-09-27T01:24:09;0.88;;;0.88;;
38715;SDS011;24833;49.324;8.694;2022-09-27T01:27:27;1.10;;;0.83;;
38715;SDS011;24833;49.324;8.694;2022-09-27T01:30:15;0.90;;;0.90;;
38715;SDS011;24833;49.324;8.694;2022-09-27T01:32:54;1.33;;;1.17;;
38715;SDS011;24833;49.324;8.694;2022-09-27T01:42:09;0.80;;;0.80;;
38715;SDS011;24833;49.324;8.694;2022-09-27T01:45:03;1.17;;;1.00;;
38715;SDS011;24833;49.324;8.694;2022-09-27T01:48:04;0.70;;;0.70;;
38715;SDS011;24833;49.324;8.694;2022-09-27T01:50:56;1.20;;;0.82;;
38715;SDS011;24833;49.324;8.694;2022-09-27T01:58:28;1.65;;;1.00;;
38715;SDS011;24833;49.324;8.694;2022-09-27T02:01:22;2.30;;;1.25;;
38715;SDS011;24833;49.324;8.694;2022-09-27T02:03:54;1.05;;;0.90;;
38715;SDS011;24833;49.324;8.694;2022-09-27T02:06:47;1.23;;;0.82;;
38715;SDS011;24833;49.324;8.694;2022-09-27T02:09:31;1.10;;;0.90;;
38715;SDS011;24833;49.324;8.694;2022-09-27T02:12:50;0.77;;;0.73;;
38715;SDS011;24833;49.324;8.694;2022-09-27T02:15:33;1.33;;;0.80;;
38715;SDS011;24833;49.324;8.694;2022-09-27T02:18:37;0.80;;;0.73;;
38715;SDS011;24833;49.324;8.694;2022-09-27T02:21:37;1.67;;;1.10;;
38715;SDS011;24833;49.324;8.694;2022-09-27T02:24:22;0.90;;;0.88;;
38715;SDS011;24833;49.324;8.694;2022-09-27T02:27:08;1.60;;;1.23;;
38715;SDS011;24833;49.324;8.694;2022-09-27T02:29:53;1.95;;;1.10;;
38715;SDS011;24833;49.324;8.694;2022-09-27T02:32:29;2.05;;;1.27;;
38715;SDS011;24833;49.324;8.694;2022-09-27T02:34:56;1.08;;;0.95;;
38715;SDS011;24833;49.324;8.694;2022-09-27T02:37:27;2.03;;;1.33;;
38715;SDS011;24833;49.324;8.694;2022-09-27T02:39:56;3.00;;;1.10;;
38715;SDS011;24833;49.324;8.694;2022-09-27T02:42:23;1.45;;;1.00;;
38715;SDS011;24833;49.324;8.694;2022-09-27T02:44:51;1.75;;;1.08;;
38715;SDS011;24833;49.324;8.694;2022-09-27T02:50:55;3.15;;;1.80;;
38715;SDS011;24833;49.324;8.694;2022-09-27T02:54:25;2.05;;;1.08;;
38715;SDS011;24833;49.324;8.694;2022-09-27T03:00:15;1.75;;;1.20;;
38715;SDS011;24833;49.324;8.694;2022-09-27T03:03:08;3.67;;;1.30;;
38715;SDS011;24833;49.324;8.694;2022-09-27T03:08:31;3.88;;;1.10;;
38715;SDS011;24833;49.324;8.694;2022-09-27T03:10:59;2.17;;;1.33;;
38715;SDS011;24833;49.324;8.694;2022-09-27T03:13:26;3.38;;;1.15;;
38715;SDS011;24833;49.324;8.694;2022-09-27T03:15:55;1.60;;;1.30;;
38715;SDS011;24833;49.324;8.694;2022-09-27T03:18:45;1.67;;;1.40;;
38715;SDS011;24833;49.324;8.694;2022-09-27T03:21:31;1.63;;;1.08;;
38715;SDS011;24833;49.324;8.694;2022-09-27T03:23:58;2.08;;;1.23;;
38715;SDS011;24833;49.324;8.694;2022-09-27T03:26:26;1.85;;;1.35;;
38715;SDS011;24833;49.324;8.694;2022-09-27T03:28:53;2.33;;;1.20;;
38715;SDS011;24833;49.324;8.694;2022-09-27T03:31:21;2.22;;;1.40;;
38715;SDS011;24833;49.324;8.694;2022-09-27T03:34:20;3.17;;;1.50;;
38715;SDS011;24833;49.324;8.694;2022-09-27T03:36:47;4.03;;;1.83;;
38715;SDS011;24833;49.324;8.694;2022-09-27T03:39:14;2.03;;;1.45;;
38715;SDS011;24833;49.324;8.694;2022-09-27T03:41:42;5.15;;;1.55;;
38715;SDS011;24833;49.324;8.694;2022-09-27T03:44:09;2.80;;;1.48;;
38715;SDS011;24833;49.324;8.694;2022-09-27T03:46:36;1.88;;;1.35;;
38715;SDS011;24833;49.324;8.694;2022-09-27T03:49:03;2.00;;;1.67;;
38715;SDS011;24833;49.324;8.694;2022-09-27T03:51:30;4.13;;;2.22;;
38715;SDS011;24833;49.324;8.694;2022-09-27T03:53:57;2.97;;;1.77;;
38715;SDS011;24833;49.324;8.694;2022-09-27T03:56:24;2.85;;;1.52;;
38715;SDS011;24833;49.324;8.694;2022-09-27T03:58:51;7.55;;;1.92;;
38715;SDS011;24833;49.324;8.694;2022-09-27T04:01:18;7.38;;;1.77;;
38715;SDS011;24833;49.324;8.694;2022-09-27T04:03:51;3.08;;;1.67;;
38715;SDS011;24833;49.324;8.694;2022-09-27T04:06:24;2.67;;;1.80;;
38715;SDS011;24833;49.324;8.694;2022-09-27T04:08:52;3.38;;;1.63;;
38715;SDS011;24833;49.324;8.694;2022-09-27T04:11:22;4.10;;;1.73;;
38715;SDS011;24833;49.324;8.694;2022-09-27T04:13:50;2.33;;;1.65;;
38715;SDS011;24833;49.324;8.694;2022-09-27T04:16:19;2.75;;;1.75;;
38715;SDS011;24833;49.324;8.694;2022-09-27T04:18:52;2.92;;;1.63;;
38715;SDS011;24833;49.324;8.694;2022-09-27T04:21:42;3.60;;;1.92;;
38715;SDS011;24833;49.324;8.694;2022-09-27T04:24:11;4.82;;;2.00;;
38715;SDS011;24833;49.324;8.694;2022-09-27T04:26:46;4.28;;;1.90;;
38715;SDS011;24833;49.324;8.694;2022-09-27T04:29:20;3.30;;;1.75;;
38715;SDS011;24833;49.324;8.694;2022-09-27T04:31:50;3.08;;;1.85;;
38715;SDS011;24833;49.324;8.694;2022-09-27T04:34:36;5.68;;;2.05;;
38715;SDS011;24833;49.324;8.694;2022-09-27T04:37:24;2.95;;;1.65;;
38715;SDS011;24833;49.324;8.694;2022-09-27T04:39:59;2.92;;;1.95;;
38715;SDS011;24833;49.324;8.694;2022-09-27T04:42:26;3.92;;;1.80;;
38715;SDS011;24833;49.324;8.694;2022-09-27T04:44:54;4.63;;;2.20;;
38715;SDS011;24833;49.324;8.694;2022-09-27T04:47:21;2.28;;;2.08;;
38715;SDS011;24833;49.324;8.694;2022-09-27T04:49:48;2.60;;;1.73;;
38715;SDS011;24833;49.324;8.694;2022-09-27T04:52:15;4.78;;;2.33;;
38715;SDS011;24833;49.324;8.694;2022-09-27T04:54:42;3.75;;;2.20;;
38715;SDS011;24833;49.324;8.694;2022-09-27T04:57:10;2.53;;;1.90;;
38715;SDS011;24833;49.324;8.694;2022-09-27T04:59:38;3.33;;;1.92;;
38715;SDS011;24833;49.324;8.694;2022-09-27T05:02:07;2.20;;;1.77;;
38715;SDS011;24833;49.324;8.694;2022-09-27T05:04:55;4.55;;;2.05;;
38715;SDS011;24833;49.324;8.694;2022-09-27T05:07:26;2.60;;;1.95;;
38715;SDS011;24833;49.324;8.694;2022-09-27T05:10:00;3.08;;;1.85;;
38715;SDS011;24833;49.324;8.694;2022-09-27T05:12:28;3.95;;;2.00;;
38715;SDS011;24833;49.324;8.694;2022-09-27T05:14:57;5.28;;;2.25;;
38715;SDS011;24833;49.324;8.694;2022-09-27T05:17:49;2.75;;;1.85;;
38715;SDS011;24833;49.324;8.694;2022-09-27T05:20:36;4.47;;;2.20;;
38715;SDS011;24833;49.324;8.694;2022-09-27T05:23:26;3.00;;;2.03;;
38715;SDS011;24833;49.324;8.694;2022-09-27T05:25:53;2.17;;;1.90;;
38715;SDS011;24833;49.324;8.694;2022-09-27T05:28:22;2.88;;;2.03;;
38715;SDS011;24833;49.324;8.694;2022-09-27T05:30:51;3.38;;;2.30;;
38715;SDS011;24833;49.324;8.694;2022-09-27T05:33:20;2.55;;;1.67;;
38715;SDS011;24833;49.324;8.694;2022-09-27T05:35:51;2.72;;;1.83;;
38715;SDS011;24833;49.324;8.694;2022-09-27T05:38:28;2.75;;;2.00;;
38715;SDS011;24833;49.324;8.694;2022-09-27T05:40:57;3.03;;;2.47;;
38715;SDS011;24833;49.324;8.694;2022-09-27T05:43:24;3.40;;;1.92;;
38715;SDS011;24833;49.324;8.694;2022-09-27T05:45:55;3.13;;;1.73;;
38715;SDS011;24833;49.324;8.694;2022-09-27T05:48:22;1.50;;;1.40;;
38715;SDS011;24833;49.324;8.694;2022-09-27T05:51:02;3.60;;;1.75;;
38715;SDS011;24833;49.324;8.694;2022-09-27T05:53:30;3.08;;;1.65;;
38715;SDS011;24833;49.324;8.694;2022-09-27T05:56:02;1.98;;;1.60;;
38715;SDS011;24833;49.324;8.694;2022-09-27T06:01:17;1.90;;;1.25;;
38715;SDS011;24833;49.324;8.694;2022-09-27T06:04:05;2.42;;;1.60;;
38715;SDS011;24833;49.324;8.694;2022-09-27T06:06:54;3.78;;;1.90;;
38715;SDS011;24833;49.324;8.694;2022-09-27T06:09:24;2.07;;;1.47;;
38715;SDS011;24833;49.324;8.694;2022-09-27T06:11:54;5.13;;;1.23;;
38715;SDS011;24833;49.324;8.694;2022-09-27T06:14:22;2.28;;;1.50;;
38715;SDS011;24833;49.324;8.694;2022-09-27T06:16:57;2.78;;;1.70;;
38715;SDS011;24833;49.324;8.694;2022-09-27T06:19:27;1.77;;;1.40;;
38715;SDS011;24833;49.324;8.694;2022-09-27T06:21:55;2.78;;;1.58;;
38715;SDS011;24833;49.324;8.694;2022-09-27T06:26:55;3.25;;;1.33;;
38715;SDS011;24833;49.324;8.694;2022-09-27T06:29:35;1.58;;;1.48;;
38715;SDS011;24833;49.324;8.694;2022-09-27T06:32:05;3.13;;;1.50;;
38715;SDS011;24833;49.324;8.694;2022-09-27T06:34:45;1.98;;;1.30;;
38715;SDS011;24833;49.324;8.694;2022-09-27T06:37:12;4.75;;;2.22;;
38715;SDS011;24833;49.324;8.694;2022-09-27T06:39:40;1.70;;;1.50;;
38715;SDS011;24833;49.324;8.694;2022-09-27T06:42:30;1.88;;;1.35;;
38715;SDS011;24833;49.324;8.694;2022-09-27T06:45:16;2.20;;;1.58;;
38715;SDS011;24833;49.324;8.694;2022-09-27T06:48:15;2.67;;;1.52;;
38715;SDS011;24833;49.324;8.694;2022-09-27T06:50:47;1.70;;;1.60;;
38715;SDS011;24833;49.324;8.694;2022-09-27T06:53:15;1.58;;;1.48;;
38715;SDS011;24833;49.324;8.694;2022-09-27T06:55:43;2.53;;;2.10;;
38715;SDS011;24833;49.324;8.694;2022-09-27T06:58:10;3.03;;;1.92;;
38715;SDS011;24833;49.324;8.694;2022-09-27T07:01:15;3.22;;;1.92;;
38715;SDS011;24833;49.324;8.694;2022-09-27T07:04:21;3.45;;;2.00;;
38715;SDS011;24833;49.324;8.694;2022-09-27T07:07:08;1.40;;;1.33;;
38715;SDS011;24833;49.324;8.694;2022-09-27T07:09:37;2.58;;;1.40;;
38715;SDS011;24833;49.324;8.694;2022-09-27T07:12:05;4.15;;;1.85;;
38715;SDS011;24833;49.324;8.694;2022-09-27T07:14:33;2.33;;;1.40;;
38715;SDS011;24833;49.324;8.694;2022-09-27T07:17:01;4.65;;;2.00;;
38715;SDS011;24833;49.324;8.694;2022-09-27T07:19:33;4.30;;;1.65;;
38715;SDS011;24833;49.324;8.694;2022-09-27T07:22:01;1.58;;;1.48;;
38715;SDS011;24833;49.324;8.694;2022-09-27T07:24:28;2.60;;;1.77;;
38715;SDS011;24833;49.324;8.694;2022-09-27T07:26:55;3.05;;;1.85;;
38715;SDS011;24833;49.324;8.694;2022-09-27T07:29:22;4.82;;;1.60;;
38715;SDS011;24833;49.324;8.694;2022-09-27T07:31:51;4.90;;;1.88;;
38715;SDS011;24833;49.324;8.694;2022-09-27T07:34:18;1.85;;;1.73;;
38715;SDS011;24833;49.324;8.694;2022-09-27T07:36:45;1.95;;;1.65;;
38715;SDS011;24833;49.324;8.694;2022-09-27T07:39:12;1.70;;;1.60;;
38715;SDS011;24833;49.324;8.694;2022-09-27T07:41:41;3.17;;;1.55;;
38715;SDS011;24833;49.324;8.694;2022-09-27T07:44:10;2.17;;;1.52;;
38715;SDS011;24833;49.324;8.694;2022-09-27T07:46:49;2.22;;;1.40;;
38715;SDS011;24833;49.324;8.694;2022-09-27T07:49:20;1.15;;;1.13;;
38715;SDS011;24833;49.324;8.694;2022-09-27T07:52:03;1.58;;;1.48;;
38715;SDS011;24833;49.324;8.694;2022-09-27T07:54:40;3.50;;;1.33;;
38715;SDS011;24833;49.324;8.694;2022-09-27T07:57:30;1.30;;;1.20;;
38715;SDS011;24833;49.324;8.694;2022-09-27T07:59:59;2.15;;;1.40;;
38715;SDS011;24833;49.324;8.694;2022-09-27T08:02:26;1.73;;;1.42;;
38715;SDS011;24833;49.324;8.694;2022-09-27T08:04:54;3.88;;;1.30;;
38715;SDS011;24833;49.324;8.694;2022-09-27T08:07:24;1.33;;;0.95;;
38715;SDS011;24833;49.324;8.694;2022-09-27T08:09:53;1.33;;;1.23;;
38715;SDS011;24833;49.324;8.694;2022-09-27T08:12:21;2.10;;;1.20;;
38715;SDS011;24833;49.324;8.694;2022-09-27T08:14:48;2.38;;;1.15;;
38715;SDS011;24833;49.324;8.694;2022-09-27T08:17:16;2.75;;;1.00;;
38715;SDS011;24833;49.324;8.694;2022-09-27T08:20:03;1.75;;;1.00;;
38715;SDS011;24833;49.324;8.694;2022-09-27T08:22:55;2.00;;;1.35;;
38715;SDS011;24833;49.324;8.694;2022-09-27T08:25:30;1.27;;;1.17;;
38715;SDS011;24833;49.324;8.694;2022-09-27T08:28:16;1.75;;;0.95;;
38715;SDS011;24833;49.324;8.694;2022-09-27T08:30:52;1.67;;;1.10;;
38715;SDS011;24833;49.324;8.694;2022-09-27T08:33:24;2.15;;;1.40;;
38715;SDS011;24833;49.324;8.694;2022-09-27T08:35:58;2.67;;;1.70;;
38715;SDS011;24833;49.324;8.694;2022-09-27T08:38:27;1.95;;;1.60;;
38715;SDS011;24833;49.324;8.694;2022-09-27T08:40:58;2.35;;;1.85;;
38715;SDS011;24833;49.324;8.694;2022-09-27T08:44:03;1.70;;;1.60;;
38715;SDS011;24833;49.324;8.694;2022-09-27T08:47:11;2.38;;;1.67;;
38715;SDS011;24833;49.324;8.694;2022-09-27T08:49:57;1.33;;;1.25;;
38715;SDS011;24833;49.324;8.694;2022-09-27T08:52:45;2.05;;;1.48;;
38715;SDS011;24833;49.324;8.694;2022-09-27T08:55:24;1.63;;;1.52;;
38715;SDS011;24833;49.324;8.694;2022-09-27T08:58:34;2.45;;;1.88;;
38715;SDS011;24833;49.324;8.694;2022-09-27T09:01:27;1.98;;;1.83;;
38715;SDS011;24833;49.324;8.694;2022-09-27T09:04:03;2.53;;;1.80;;
38715;SDS011;24833;49.324;8.694;2022-09-27T09:12:24;2.60;;;1.65;;
38715;SDS011;24833;49.324;8.694;2022-09-27T09:15:37;1.35;;;1.25;;
38715;SDS011;24833;49.324;8.694;2022-09-27T09:19:03;1.73;;;1.13;;
38715;SDS011;24833;49.324;8.694;2022-09-27T09:24:55;2.35;;;1.38;;
38715;SDS011;24833;49.324;8.694;2022-09-27T09:30:48;1.83;;;1.60;;
38715;SDS011;24833;49.324;8.694;2022-09-27T09:33:43;3.72;;;1.88;;
38715;SDS011;24833;49.324;8.694;2022-09-27T09:36:24;1.65;;;1.45;;
38715;SDS011;24833;49.324;8.694;2022-09-27T09:39:22;1.88;;;1.63;;
38715;SDS011;24833;49.324;8.694;2022-09-27T09:42:03;2.75;;;2.03;;
38715;SDS011;24833;49.324;8.694;2022-09-27T09:44:47;3.00;;;1.92;;
38715;SDS011;24833;49.324;8.694;2022-09-27T09:50:47;3.78;;;2.15;;
38715;SDS011;24833;49.324;8.694;2022-09-27T09:53:20;2.72;;;2.42;;
38715;SDS011;24833;49.324;8.694;2022-09-27T09:56:06;2.15;;;1.88;;
38715;SDS011;24833;49.324;8.694;2022-09-27T10:01:35;2.63;;;2.33;;
38715;SDS011;24833;49.324;8.694;2022-09-27T10:04:14;3.03;;;1.90;;
38715;SDS011;24833;49.324;8.694;2022-09-27T10:06:52;4.40;;;2.42;;
38715;SDS011;24833;49.324;8.694;2022-09-27T10:09:22;4.55;;;1.90;;
38715;SDS011;24833;49.324;8.694;2022-09-27T10:12:12;2.58;;;1.85;;
38715;SDS011;24833;49.324;8.694;2022-09-27T10:14:41;3.00;;;2.15;;
38715;SDS011;24833;49.324;8.694;2022-09-27T10:17:13;2.03;;;1.80;;
38715;SDS011;24833;49.324;8.694;2022-09-27T10:19:45;2.53;;;2.00;;
38715;SDS011;24833;49.324;8.694;2022-09-27T10:22:23;2.60;;;2.10;;
38715;SDS011;24833;49.324;8.694;2022-09-27T10:25:10;4.03;;;2.33;;
38715;SDS011;24833;49.324;8.694;2022-09-27T10:27:47;2.33;;;2.08;;
38715;SDS011;24833;49.324;8.694;2022-09-27T10:30:32;3.13;;;2.25;;
38715;SDS011;24833;49.324;8.694;2022-09-27T10:33:16;3.00;;;2.08;;
38715;SDS011;24833;49.324;8.694;2022-09-27T10:35:50;2.30;;;1.45;;
38715;SDS011;24833;49.324;8.694;2022-09-27T10:38:32;2.15;;;1.33;;
38715;SDS011;24833;49.324;8.694;2022-09-27T10:43:56;1.60;;;1.13;;
38715;SDS011;24833;49.324;8.694;2022-09-27T10:46:48;1.10;;;1.08;;
38715;SDS011;24833;49.324;8.694;2022-09-27T10:49:38;3.78;;;1.15;;
38715;SDS011;24833;49.324;8.694;2022-09-27T10:52:25;1.95;;;0.95;;
38715;SDS011;24833;49.324;8.694;2022-09-27T10:57:31;0.73;;;0.73;;
38715;SDS011;24833;49.324;8.694;2022-09-27T11:00:02;2.17;;;0.90;;
38715;SDS011;24833;49.324;8.694;2022-09-27T11:02:36;0.77;;;0.77;;
38715;SDS011;24833;49.324;8.694;2022-09-27T11:07:57;0.75;;;0.75;;
38715;SDS011;24833;49.324;8.694;2022-09-27T11:13:40;0.93;;;0.80;;
38715;SDS011;24833;49.324;8.694;2022-09-27T11:16:34;1.98;;;0.90;;
38715;SDS011;24833;49.324;8.694;2022-09-27T11:28:46;1.83;;;1.25;;
38715;SDS011;24833;49.324;8.694;2022-09-27T11:37:52;3.08;;;1.42;;
38715;SDS011;24833;49.324;8.694;2022-09-27T11:41:09;5.55;;;2.10;;
38715;SDS011;24833;49.324;8.694;2022-09-27T11:50:15;3.25;;;1.73;;
38715;SDS011;24833;49.324;8.694;2022-09-27T11:52:58;2.35;;;1.85;;
38715;SDS011;24833;49.324;8.694;2022-09-27T11:58:48;2.60;;;1.83;;
38715;SDS011;24833;49.324;8.694;2022-09-27T12:10:34;3.25;;;1.80;;
38715;SDS011;24833;49.324;8.694;2022-09-27T12:13:04;3.47;;;1.80;;
38715;SDS011;24833;49.324;8.694;2022-09-27T12:15:37;2.65;;;1.98;;
38715;SDS011;24833;49.324;8.694;2022-09-27T12:18:19;1.92;;;1.38;;
38715;SDS011;24833;49.324;8.694;2022-09-27T12:20:55;3.33;;;1.85;;
38715;SDS011;24833;49.324;8.694;2022-09-27T12:23:50;2.63;;;1.55;;
38715;SDS011;24833;49.324;8.694;2022-09-27T12:26:40;2.40;;;1.48;;
38715;SDS011;24833;49.324;8.694;2022-09-27T12:29:11;6.30;;;1.73;;
38715;SDS011;24833;49.324;8.694;2022-09-27T12:32:10;2.38;;;1.42;;
38715;SDS011;24833;49.324;8.694;2022-09-27T12:40:20;2.38;;;1.55;;
38715;SDS011;24833;49.324;8.694;2022-09-27T12:42:59;2.05;;;1.50;;
38715;SDS011;24833;49.324;8.694;2022-09-27T12:51:11;1.42;;;1.33;;
38715;SDS011;24833;49.324;8.694;2022-09-27T12:57:01;3.08;;;1.00;;
38715;SDS011;24833;49.324;8.694;2022-09-27T13:00:05;0.82;;;0.80;;
38715;SDS011;24833;49.324;8.694;2022-09-27T13:05:57;2.22;;;1.08;;
38715;SDS011;24833;49.324;8.694;2022-09-27T13:14:31;0.52;;;0.50;;
38715;SDS011;24833;49.324;8.694;2022-09-27T13:17:04;1.85;;;0.63;;
38715;SDS011;24833;49.324;8.694;2022-09-27T13:22:02;1.70;;;0.98;;
38715;SDS011;24833;49.324;8.694;2022-09-27T13:25:45;1.15;;;0.75;;
38715;SDS011;24833;49.324;8.694;2022-09-27T13:31:01;2.22;;;1.33;;
38715;SDS011;24833;49.324;8.694;2022-09-27T13:33:44;0.85;;;0.80;;
38715;SDS011;24833;49.324;8.694;2022-09-27T13:36:31;3.20;;;1.08;;
38715;SDS011;24833;49.324;8.694;2022-09-27T13:42:02;3.80;;;0.93;;
38715;SDS011;24833;49.324;8.694;2022-09-27T13:44:44;1.63;;;0.80;;
38715;SDS011;24833;49.324;8.694;2022-09-27T13:47:44;1.27;;;0.70;;
38715;SDS011;24833;49.324;8.694;2022-09-27T13:50:50;1.67;;;0.60;;
38715;SDS011;24833;49.324;8.694;2022-09-27T13:53:39;1.88;;;0.60;;
38715;SDS011;24833;49.324;8.694;2022-09-27T13:59:22;0.38;;;0.35;;
38715;SDS011;24833;49.324;8.694;2022-09-27T14:02:24;0.95;;;0.40;;
38715;SDS011;24833;49.324;8.694;2022-09-27T14:04:57;1.95;;;0.60;;
38715;SDS011;24833;49.324;8.694;2022-09-27T14:07:29;3.30;;;0.40;;
38715;SDS011;24833;49.324;8.694;2022-09-27T14:10:10;0.98;;;0.50;;
38715;SDS011;24833;49.324;8.694;2022-09-27T14:12:43;2.05;;;0.50;;
38715;SDS011;24833;49.324;8.694;2022-09-27T14:15:45;0.52;;;0.28;;
38715;SDS011;24833;49.324;8.694;2022-09-27T14:18:04;0.77;;;0.60;;
38715;SDS011;24833;49.324;8.694;2022-09-27T14:20:38;0.73;;;0.63;;
38715;SDS011;24833;49.324;8.694;2022-09-27T14:23:38;1.02;;;0.50;;
38715;SDS011;24833;49.324;8.694;2022-09-27T14:26:17;0.38;;;0.38;;
38715;SDS011;24833;49.324;8.694;2022-09-27T14:28:49;1.15;;;0.50;;
38715;SDS011;24833;49.324;8.694;2022-09-27T14:31:24;0.55;;;0.40;;
38715;SDS011;24833;49.324;8.694;2022-09-27T14:34:09;2.20;;;0.93;;
38715;SDS011;24833;49.324;8.694;2022-09-27T14:36:42;1.65;;;0.60;;
38715;SDS011;24833;49.324;8.694;2022-09-27T14:42:33;0.47;;;0.47;;
38715;SDS011;24833;49.324;8.694;2022-09-27T14:45:21;0.55;;;0.47;;
38715;SDS011;24833;49.324;8.694;2022-09-27T14:48:16;0.82;;;0.40;;
38715;SDS011;24833;49.324;8.694;2022-09-27T14:50:57;0.40;;;0.38;;
38715;SDS011;24833;49.324;8.694;2022-09-27T14:53:48;0.57;;;0.40;;
38715;SDS011;24833;49.324;8.694;2022-09-27T14:56:29;0.82;;;0.52;;
38715;SDS011;24833;49.324;8.694;2022-09-27T14:59:01;0.85;;;0.60;;
38715;SDS011;24833;49.324;8.694;2022-09-27T15:01:34;0.30;;;0.30;;
38715;SDS011;24833;49.324;8.694;2022-09-27T15:04:05;0.73;;;0.60;;
38715;SDS011;24833;49.324;8.694;2022-09-27T15:06:37;0.63;;;0.63;;
38715;SDS011;24833;49.324;8.694;2022-09-27T15:09:05;1.60;;;0.88;;
38715;SDS011;24833;49.324;8.694;2022-09-27T15:11:35;0.43;;;0.32;;
38715;SDS011;24833;49.324;8.694;2022-09-27T15:14:04;1.33;;;1.10;;
38715;SDS011;24833;49.324;8.694;2022-09-27T15:16:32;0.60;;;0.60;;
38715;SDS011;24833;49.324;8.694;2022-09-27T15:19:00;1.08;;;0.70;;
38715;SDS011;24833;49.324;8.694;2022-09-27T15:21:39;1.35;;;0.70;;
38715;SDS011;24833;49.324;8.694;2022-09-27T15:24:33;1.90;;;0.98;;
38715;SDS011;24833;49.324;8.694;2022-09-27T15:27:13;1.55;;;0.80;;
38715;SDS011;24833;49.324;8.694;2022-09-27T15:29:48;0.60;;;0.60;;
38715;SDS011;24833;49.324;8.694;2022-09-27T15:32:24;0.47;;;0.40;;
38715;SDS011;24833;49.324;8.694;2022-09-27T15:34:53;2.30;;;1.00;;
38715;SDS011;24833;49.324;8.694;2022-09-27T15:37:26;0.88;;;0.63;;
38715;SDS011;24833;49.324;8.694;2022-09-27T15:42:56;0.85;;;0.50;;
38715;SDS011;24833;49.324;8.694;2022-09-27T15:45:29;0.40;;;0.40;;
38715;SDS011;24833;49.324;8.694;2022-09-27T15:48:06;0.90;;;0.60;;
38715;SDS011;24833;49.324;8.694;2022-09-27T15:50:43;0.50;;;0.40;;
38715;SDS011;24833;49.324;8.694;2022-09-27T15:53:12;1.30;;;0.90;;
38715;SDS011;24833;49.324;8.694;2022-09-27T15:56:02;1.02;;;0.60;;
38715;SDS011;24833;49.324;8.694;2022-09-27T15:58:33;0.57;;;0.57;;
38715;SDS011;24833;49.324;8.694;2022-09-27T16:01:03;0.85;;;0.50;;
38715;SDS011;24833;49.324;8.694;2022-09-27T16:03:31;1.08;;;0.60;;
38715;SDS011;24833;49.324;8.694;2022-09-27T16:06:00;1.80;;;1.20;;
38715;SDS011;24833;49.324;8.694;2022-09-27T16:08:28;1.25;;;0.63;;
38715;SDS011;24833;49.324;8.694;2022-09-27T16:10:56;0.60;;;0.60;;
38715;SDS011;24833;49.324;8.694;2022-09-27T16:13:24;1.33;;;0.52;;
38715;SDS011;24833;49.324;8.694;2022-09-27T16:15:58;1.15;;;0.45;;
38715;SDS011;24833;49.324;8.694;2022-09-27T16:18:27;2.13;;;0.55;;
38715;SDS011;24833;49.324;8.694;2022-09-27T16:20:57;0.47;;;0.30;;
38715;SDS011;24833;49.324;8.694;2022-09-27T16:23:24;0.85;;;0.45;;
38715;SDS011;24833;49.324;8.694;2022-09-27T16:25:51;0.55;;;0.30;;
38715;SDS011;24833;49.324;8.694;2022-09-27T16:28:19;2.22;;;0.47;;
38715;SDS011;24833;49.324;8.694;2022-09-27T16:30:46;0.43;;;0.40;;
38715;SDS011;24833;49.324;8.694;2022-09-27T16:33:13;0.68;;;0.55;;
38715;SDS011;24833;49.324;8.694;2022-09-27T16:35:40;0.68;;;0.45;;
38715;SDS011;24833;49.324;8.694;2022-09-27T16:38:07;1.25;;;0.60;;
38715;SDS011;24833;49.324;8.694;2022-09-27T16:40:35;0.85;;;0.50;;
38715;SDS011;24833;49.324;8.694;2022-09-27T16:43:03;1.10;;;0.50;;
38715;SDS011;24833;49.324;8.694;2022-09-27T16:45:34;0.73;;;0.52;;
38715;SDS011;24833;49.324;8.694;2022-09-27T16:48:04;0.73;;;0.63;;
38715;SDS011;24833;49.324;8.694;2022-09-27T16:50:31;1.83;;;0.70;;
38715;SDS011;24833;49.324;8.694;2022-09-27T16:53:16;0.82;;;0.68;;
38715;SDS011;24833;49.324;8.694;2022-09-27T16:55:43;0.50;;;0.50;;
38715;SDS011;24833;49.324;8.694;2022-09-27T16:58:10;1.00;;;0.57;;
38715;SDS011;24833;49.324;8.694;2022-09-27T17:00:37;0.63;;;0.55;;
38715;SDS011;24833;49.324;8.694;2022-09-27T17:03:07;0.80;;;0.60;;
38715;SDS011;24833;49.324;8.694;2022-09-27T17:05:34;0.50;;;0.50;;
38715;SDS011;24833;49.324;8.694;2022-09-27T17:08:01;0.75;;;0.43;;
38715;SDS011;24833;49.324;8.694;2022-09-27T17:10:28;0.85;;;0.40;;
38715;SDS011;24833;49.324;8.694;2022-09-27T17:12:56;0.98;;;0.43;;
38715;SDS011;24833;49.324;8.694;2022-09-27T17:15:23;0.38;;;0.32;;
38715;SDS011;24833;49.324;8.694;2022-09-27T17:17:51;6.35;;;0.57;;
38715;SDS011;24833;49.324;8.694;2022-09-27T17:20:18;1.05;;;0.70;;
38715;SDS011;24833;49.324;8.694;2022-09-27T17:22:45;0.73;;;0.50;;
38715;SDS011;24833;49.324;8.694;2022-09-27T17:25:12;0.43;;;0.38;;
38715;SDS011;24833;49.324;8.694;2022-09-27T17:27:39;0.98;;;0.82;;
38715;SDS011;24833;49.324;8.694;2022-09-27T17:30:06;2.05;;;0.80;;
38715;SDS011;24833;49.324;8.694;2022-09-27T17:32:33;0.93;;;0.50;;
38715;SDS011;24833;49.324;8.694;2022-09-27T17:35:01;1.55;;;0.90;;
38715;SDS011;24833;49.324;8.694;2022-09-27T17:37:28;0.82;;;0.60;;
38715;SDS011;24833;49.324;8.694;2022-09-27T17:39:55;1.92;;;1.00;;
38715;SDS011;24833;49.324;8.694;2022-09-27T17:42:22;0.73;;;0.60;;
38715;SDS011;24833;49.324;8.694;2022-09-27T17:44:50;1.05;;;0.70;;
38715;SDS011;24833;49.324;8.694;2022-09-27T17:47:17;1.67;;;0.70;;
38715;SDS011;24833;49.324;8.694;2022-09-27T17:50:02;0.75;;;0.57;;
38715;SDS011;24833;49.324;8.694;2022-09-27T17:52:48;0.98;;;0.57;;
38715;SDS011;24833;49.324;8.694;2022-09-27T17:55:17;1.83;;;0.90;;
38715;SDS011;24833;49.324;8.694;2022-09-27T17:57:47;2.30;;;1.13;;
38715;SDS011;24833;49.324;8.694;2022-09-27T18:00:16;1.60;;;1.00;;
38715;SDS011;24833;49.324;8.694;2022-09-27T18:02:44;1.38;;;1.02;;
38715;SDS011;24833;49.324;8.694;2022-09-27T18:05:11;1.50;;;1.30;;
38715;SDS011;24833;49.324;8.694;2022-09-27T18:07:39;1.08;;;0.90;;
38715;SDS011;24833;49.324;8.694;2022-09-27T18:10:06;2.03;;;1.17;;